sensor_id;sensor_type;location;lat;lon;timestamp;temperature;humidity
17236;DHT22;8734;59.272;17.780;2024-03-06T00:00:18;-1.20;99.90
17236;DHT22;8734;59.272;17.780;2024-03-06T00:02:47;-1.20;99.90
17236;DHT22;8734;59.272;17.780;2024-03-06T00:05:15;-1.20;99.90
17236;DHT22;8734;59.272;17.780;2024-03-06T00:07:43;-1.20;99.90
17236;DHT22;8734;59.272;17.780;2024-03-06T00:10:11;-1.20;99.90
17236;DHT22;8734;59.272;17.780;2024-03-06T00:12:41;-1.30;99.90
17236;DHT22;8734;59.272;17.780;2024-03-06T00:15:09;-1.40;99.90
17236;DHT22;8734;59.272;17.780;2024-03-06T00:17:37;-1.40;99.90
17236;DHT22;8734;59.272;17.780;2024-03-06T00:20:07;-1.50;99.90
17236;DHT22;8734;59.272;17.780;2024-03-06T00:22:38;-1.70;99.90
17236;DHT22;8734;59.272;17.780;2024-03-06T00:25:06;-1.70;99.90
17236;DHT22;8734;59.272;17.780;2024-03-06T00:27:35;-1.70;99.90
17236;DHT22;8734;59.272;17.780;2024-03-06T00:30:06;-1.60;99.90
17236;DHT22;8734;59.272;17.780;2024-03-06T00:32:34;-1.60;99.90
17236;DHT22;8734;59.272;17.780;2024-03-06T00:35:03;-1.70;99.90
17236;DHT22;8734;59.272;17.780;2024-03-06T00:37:31;-1.60;99.90
17236;DHT22;8734;59.272;17.780;2024-03-06T00:40:00;-1.60;99.90
17236;DHT22;8734;59.272;17.780;2024-03-06T00:42:28;-1.50;99.90
17236;DHT22;8734;59.272;17.780;2024-03-06T00:44:56;-1.50;99.90
17236;DHT22;8734;59.272;17.780;2024-03-06T00:47:26;-1.40;99.90
17236;DHT22;8734;59.272;17.780;2024-03-06T00:49:54;-1.50;99.90
17236;DHT22;8734;59.272;17.780;2024-03-06T00:52:22;-1.50;99.90
17236;DHT22;8734;59.272;17.780;2024-03-06T00:54:51;-1.40;99.90
17236;DHT22;8734;59.272;17.780;2024-03-06T00:57:19;-1.50;99.90
17236;DHT22;8734;59.272;17.780;2024-03-06T00:59:47;-1.60;99.90
17236;DHT22;8734;59.272;17.780;2024-03-06T01:02:15;-1.60;99.90
17236;DHT22;8734;59.272;17.780;2024-03-06T01:04:45;-1.60;99.90
17236;DHT22;8734;59.272;17.780;2024-03-06T01:07:13;-1.70;99.90
17236;DHT22;8734;59.272;17.780;2024-03-06T01:09:41;-1.80;99.90
17236;DHT22;8734;59.272;17.780;2024-03-06T01:12:10;-1.80;99.90
17236;DHT22;8734;59.272;17.780;2024-03-06T01:14:38;-1.90;99.90
17236;DHT22;8734;59.272;17.780;2024-03-06T01:17:06;-1.90;99.90
17236;DHT22;8734;59.272;17.780;2024-03-06T01:19:35;-2.00;99.90
17236;DHT22;8734;59.272;17.780;2024-03-06T01:22:04;-2.10;99.90
17236;DHT22;8734;59.272;17.780;2024-03-06T01:24:33;-2.20;99.90
17236;DHT22;8734;59.272;17.780;2024-03-06T01:27:01;-2.20;99.90
17236;DHT22;8734;59.272;17.780;2024-03-06T01:29:29;-2.20;99.90
17236;DHT22;8734;59.272;17.780;2024-03-06T01:31:58;-2.20;99.90
17236;DHT22;8734;59.272;17.780;2024-03-06T01:34:26;-2.30;99.90
17236;DHT22;8734;59.272;17.780;2024-03-06T01:36:55;-2.30;99.90
17236;DHT22;8734;59.272;17.780;2024-03-06T01:39:25;-2.40;99.90
17236;DHT22;8734;59.272;17.780;2024-03-06T01:41:53;-2.40;99.90
17236;DHT22;8734;59.272;17.780;2024-03-06T01:44:21;-2.50;99.90
17236;DHT22;8734;59.272;17.780;2024-03-06T01:46:49;-2.30;99.90
17236;DHT22;8734;59.272;17.780;2024-03-06T01:49:18;-2.40;99.90
17236;DHT22;8734;59.272;17.780;2024-03-06T01:51:59;-2.40;99.90
17236;DHT22;8734;59.272;17.780;2024-03-06T01:54:30;-2.40;99.90
17236;DHT22;8734;59.272;17.780;2024-03-06T01:56:59;-2.30;99.90
17236;DHT22;8734;59.272;17.780;2024-03-06T01:59:29;-2.30;99.90
17236;DHT22;8734;59.272;17.780;2024-03-06T02:02:03;-2.30;99.90
17236;DHT22;8734;59.272;17.780;2024-03-06T02:04:35;-2.30;99.90
17236;DHT22;8734;59.272;17.780;2024-03-06T02:07:03;-2.30;99.90
17236;DHT22;8734;59.272;17.780;2024-03-06T02:09:35;-2.30;99.90
17236;DHT22;8734;59.272;17.780;2024-03-06T02:12:04;-2.40;99.90
17236;DHT22;8734;59.272;17.780;2024-03-06T02:14:32;-2.40;99.90
17236;DHT22;8734;59.272;17.780;2024-03-06T02:17:00;-2.40;99.90
17236;DHT22;8734;59.272;17.780;2024-03-06T02:19:38;-2.50;99.90
17236;DHT22;8734;59.272;17.780;2024-03-06T02:22:09;-2.50;99.90
17236;DHT22;8734;59.272;17.780;2024-03-06T02:24:38;-2.50;99.90
17236;DHT22;8734;59.272;17.780;2024-03-06T02:27:06;-2.60;99.90
17236;DHT22;8734;59.272;17.780;2024-03-06T02:29:34;-2.60;99.90
17236;DHT22;8734;59.272;17.780;2024-03-06T02:32:03;-2.60;99.90
17236;DHT22;8734;59.272;17.780;2024-03-06T02:34:31;-2.50;99.90
17236;DHT22;8734;59.272;17.780;2024-03-06T02:36:59;-2.50;99.90
17236;DHT22;8734;59.272;17.780;2024-03-06T02:39:29;-2.50;99.90
17236;DHT22;8734;59.272;17.780;2024-03-06T02:41:57;-2.50;99.90
17236;DHT22;8734;59.272;17.780;2024-03-06T02:44:26;-2.50;99.90
17236;DHT22;8734;59.272;17.780;2024-03-06T02:46:54;-2.50;99.90
17236;DHT22;8734;59.272;17.780;2024-03-06T02:49:22;-2.40;99.90
17236;DHT22;8734;59.272;17.780;2024-03-06T02:51:50;-2.40;99.90
17236;DHT22;8734;59.272;17.780;2024-03-06T02:54:19;-2.40;99.90
17236;DHT22;8734;59.272;17.780;2024-03-06T02:56:51;-2.40;99.90
17236;DHT22;8734;59.272;17.780;2024-03-06T02:59:19;-2.30;99.90
17236;DHT22;8734;59.272;17.780;2024-03-06T03:01:47;-2.10;99.90
17236;DHT22;8734;59.272;17.780;2024-03-06T03:04:16;-1.90;99.90
17236;DHT22;8734;59.272;17.780;2024-03-06T03:06:44;-1.90;99.90
17236;DHT22;8734;59.272;17.780;2024-03-06T03:09:12;-1.70;99.90
17236;DHT22;8734;59.272;17.780;2024-03-06T03:11:42;-1.70;99.90
17236;DHT22;8734;59.272;17.780;2024-03-06T03:14:12;-1.60;99.90
17236;DHT22;8734;59.272;17.780;2024-03-06T03:16:40;-1.50;99.90
17236;DHT22;8734;59.272;17.780;2024-03-06T03:19:09;-1.50;99.90
17236;DHT22;8734;59.272;17.780;2024-03-06T03:21:37;-1.50;99.90
17236;DHT22;8734;59.272;17.780;2024-03-06T03:24:06;-1.40;99.90
17236;DHT22;8734;59.272;17.780;2024-03-06T03:26:34;-1.30;99.90
17236;DHT22;8734;59.272;17.780;2024-03-06T03:29:03;-1.30;99.90
17236;DHT22;8734;59.272;17.780;2024-03-06T03:31:33;-1.30;99.90
17236;DHT22;8734;59.272;17.780;2024-03-06T03:34:03;-1.30;99.90
17236;DHT22;8734;59.272;17.780;2024-03-06T03:36:31;-1.20;99.90
17236;DHT22;8734;59.272;17.780;2024-03-06T03:39:00;-1.20;99.90
17236;DHT22;8734;59.272;17.780;2024-03-06T03:41:30;-1.20;99.90
17236;DHT22;8734;59.272;17.780;2024-03-06T03:43:58;-1.20;99.90
17236;DHT22;8734;59.272;17.780;2024-03-06T03:46:27;-1.20;99.90
17236;DHT22;8734;59.272;17.780;2024-03-06T03:48:56;-1.20;99.90
17236;DHT22;8734;59.272;17.780;2024-03-06T03:51:24;-1.20;99.90
17236;DHT22;8734;59.272;17.780;2024-03-06T03:53:53;-1.20;99.90
17236;DHT22;8734;59.272;17.780;2024-03-06T03:56:21;-1.20;99.90
17236;DHT22;8734;59.272;17.780;2024-03-06T03:58:49;-1.10;99.90
17236;DHT22;8734;59.272;17.780;2024-03-06T04:01:17;-1.10;99.90
17236;DHT22;8734;59.272;17.780;2024-03-06T04:03:46;-1.10;99.90
17236;DHT22;8734;59.272;17.780;2024-03-06T04:06:16;-1.10;99.90
17236;DHT22;8734;59.272;17.780;2024-03-06T04:08:45;-1.10;99.90
17236;DHT22;8734;59.272;17.780;2024-03-06T04:11:13;-1.00;99.90
17236;DHT22;8734;59.272;17.780;2024-03-06T04:13:42;-1.00;99.90
17236;DHT22;8734;59.272;17.780;2024-03-06T04:16:10;-1.00;99.90
17236;DHT22;8734;59.272;17.780;2024-03-06T04:18:44;-1.00;99.90
17236;DHT22;8734;59.272;17.780;2024-03-06T04:21:15;-1.00;99.90
17236;DHT22;8734;59.272;17.780;2024-03-06T04:23:44;-1.10;99.90
17236;DHT22;8734;59.272;17.780;2024-03-06T04:26:12;-1.10;99.90
17236;DHT22;8734;59.272;17.780;2024-03-06T04:28:41;-1.10;99.90
17236;DHT22;8734;59.272;17.780;2024-03-06T04:31:09;-1.10;99.90
17236;DHT22;8734;59.272;17.780;2024-03-06T04:33:38;-1.10;99.90
17236;DHT22;8734;59.272;17.780;2024-03-06T04:36:06;-1.10;99.90
17236;DHT22;8734;59.272;17.780;2024-03-06T04:38:36;-1.10;99.90
17236;DHT22;8734;59.272;17.780;2024-03-06T04:41:05;-1.00;99.90
17236;DHT22;8734;59.272;17.780;2024-03-06T04:43:34;-1.10;99.90
17236;DHT22;8734;59.272;17.780;2024-03-06T04:46:02;-1.10;99.90
17236;DHT22;8734;59.272;17.780;2024-03-06T04:48:31;-1.10;99.90
17236;DHT22;8734;59.272;17.780;2024-03-06T04:50:59;-1.10;99.90
17236;DHT22;8734;59.272;17.780;2024-03-06T04:53:27;-1.00;99.90
17236;DHT22;8734;59.272;17.780;2024-03-06T04:55:57;-1.10;99.90
17236;DHT22;8734;59.272;17.780;2024-03-06T04:58:25;-1.00;99.90
17236;DHT22;8734;59.272;17.780;2024-03-06T05:00:53;-1.00;99.90
17236;DHT22;8734;59.272;17.780;2024-03-06T05:03:22;-1.00;99.90
17236;DHT22;8734;59.272;17.780;2024-03-06T05:06:07;-1.00;99.90
17236;DHT22;8734;59.272;17.780;2024-03-06T05:08:53;-1.00;99.90
17236;DHT22;8734;59.272;17.780;2024-03-06T05:11:40;-0.90;99.90
17236;DHT22;8734;59.272;17.780;2024-03-06T05:14:25;-0.90;99.90
17236;DHT22;8734;59.272;17.780;2024-03-06T05:17:11;-0.90;99.90
17236;DHT22;8734;59.272;17.780;2024-03-06T05:19:56;-0.90;99.90
17236;DHT22;8734;59.272;17.780;2024-03-06T05:22:42;-0.80;99.90
17236;DHT22;8734;59.272;17.780;2024-03-06T05:25:28;-0.80;99.90
17236;DHT22;8734;59.272;17.780;2024-03-06T05:28:15;-0.80;99.90
17236;DHT22;8734;59.272;17.780;2024-03-06T05:31:00;-0.80;99.90
17236;DHT22;8734;59.272;17.780;2024-03-06T05:33:47;-0.70;99.90
17236;DHT22;8734;59.272;17.780;2024-03-06T05:36:34;-0.70;99.90
17236;DHT22;8734;59.272;17.780;2024-03-06T05:39:20;-0.70;99.90
17236;DHT22;8734;59.272;17.780;2024-03-06T05:42:06;-0.70;99.90
17236;DHT22;8734;59.272;17.780;2024-03-06T05:44:53;-0.70;99.90
17236;DHT22;8734;59.272;17.780;2024-03-06T05:47:39;-0.60;99.90
17236;DHT22;8734;59.272;17.780;2024-03-06T05:50:25;-0.60;99.90
17236;DHT22;8734;59.272;17.780;2024-03-06T05:53:10;-0.60;99.90
17236;DHT22;8734;59.272;17.780;2024-03-06T05:55:56;-0.60;99.90
17236;DHT22;8734;59.272;17.780;2024-03-06T05:58:42;-0.50;99.90
17236;DHT22;8734;59.272;17.780;2024-03-06T06:01:15;-0.50;99.90
17236;DHT22;8734;59.272;17.780;2024-03-06T06:03:47;-0.50;99.90
17236;DHT22;8734;59.272;17.780;2024-03-06T06:06:15;-0.40;99.90
17236;DHT22;8734;59.272;17.780;2024-03-06T06:08:44;-0.40;99.90
17236;DHT22;8734;59.272;17.780;2024-03-06T06:11:12;-0.40;99.90
17236;DHT22;8734;59.272;17.780;2024-03-06T06:13:40;-0.40;99.90
17236;DHT22;8734;59.272;17.780;2024-03-06T06:16:09;-0.40;99.90
17236;DHT22;8734;59.272;17.780;2024-03-06T06:18:40;-0.30;99.90
17236;DHT22;8734;59.272;17.780;2024-03-06T06:21:09;-0.30;99.90
17236;DHT22;8734;59.272;17.780;2024-03-06T06:23:37;-0.30;99.90
17236;DHT22;8734;59.272;17.780;2024-03-06T06:26:06;-0.30;99.90
17236;DHT22;8734;59.272;17.780;2024-03-06T06:28:36;-0.20;99.90
17236;DHT22;8734;59.272;17.780;2024-03-06T06:31:05;-0.20;99.90
17236;DHT22;8734;59.272;17.780;2024-03-06T06:33:33;-0.20;99.90
17236;DHT22;8734;59.272;17.780;2024-03-06T06:36:03;-0.20;99.90
17236;DHT22;8734;59.272;17.780;2024-03-06T06:38:31;-0.20;99.90
17236;DHT22;8734;59.272;17.780;2024-03-06T06:41:00;-0.20;99.90
17236;DHT22;8734;59.272;17.780;2024-03-06T06:43:29;-0.10;99.90
17236;DHT22;8734;59.272;17.780;2024-03-06T06:45:58;-0.10;99.90
17236;DHT22;8734;59.272;17.780;2024-03-06T06:48:28;-0.10;99.90
17236;DHT22;8734;59.272;17.780;2024-03-06T06:50:57;-0.10;99.90
17236;DHT22;8734;59.272;17.780;2024-03-06T06:53:26;0.00;99.90
17236;DHT22;8734;59.272;17.780;2024-03-06T06:55:54;0.00;99.90
17236;DHT22;8734;59.272;17.780;2024-03-06T06:58:23;0.00;99.90
17236;DHT22;8734;59.272;17.780;2024-03-06T07:00:53;0.00;99.90
17236;DHT22;8734;59.272;17.780;2024-03-06T07:03:22;0.00;99.90
17236;DHT22;8734;59.272;17.780;2024-03-06T07:05:56;0.10;99.90
17236;DHT22;8734;59.272;17.780;2024-03-06T07:08:26;0.10;99.90
17236;DHT22;8734;59.272;17.780;2024-03-06T07:10:54;0.10;99.90
17236;DHT22;8734;59.272;17.780;2024-03-06T07:13:24;0.10;99.90
17236;DHT22;8734;59.272;17.780;2024-03-06T07:15:52;0.10;99.90
17236;DHT22;8734;59.272;17.780;2024-03-06T07:18:21;0.10;99.90
17236;DHT22;8734;59.272;17.780;2024-03-06T07:20:49;0.20;99.90
17236;DHT22;8734;59.272;17.780;2024-03-06T07:23:17;0.20;99.90
17236;DHT22;8734;59.272;17.780;2024-03-06T07:25:47;0.20;99.90
17236;DHT22;8734;59.272;17.780;2024-03-06T07:28:15;0.20;99.90
17236;DHT22;8734;59.272;17.780;2024-03-06T07:30:43;0.30;99.90
17236;DHT22;8734;59.272;17.780;2024-03-06T07:33:12;0.30;99.90
17236;DHT22;8734;59.272;17.780;2024-03-06T07:35:40;0.20;99.90
17236;DHT22;8734;59.272;17.780;2024-03-06T07:38:09;0.20;99.90
17236;DHT22;8734;59.272;17.780;2024-03-06T07:40:37;0.20;99.90
17236;DHT22;8734;59.272;17.780;2024-03-06T07:43:07;0.30;99.90
17236;DHT22;8734;59.272;17.780;2024-03-06T07:45:35;0.30;99.90
17236;DHT22;8734;59.272;17.780;2024-03-06T07:48:04;0.30;99.90
17236;DHT22;8734;59.272;17.780;2024-03-06T07:50:33;0.40;99.90
17236;DHT22;8734;59.272;17.780;2024-03-06T07:53:01;0.40;99.90
17236;DHT22;8734;59.272;17.780;2024-03-06T07:55:30;0.50;99.90
17236;DHT22;8734;59.272;17.780;2024-03-06T07:57:58;0.50;99.90
17236;DHT22;8734;59.272;17.780;2024-03-06T08:00:28;0.50;99.90
17236;DHT22;8734;59.272;17.780;2024-03-06T08:03:01;0.50;99.90
17236;DHT22;8734;59.272;17.780;2024-03-06T08:05:29;0.50;99.90
17236;DHT22;8734;59.272;17.780;2024-03-06T08:07:59;0.40;99.90
17236;DHT22;8734;59.272;17.780;2024-03-06T08:10:30;0.50;99.90
17236;DHT22;8734;59.272;17.780;2024-03-06T08:13:03;0.50;99.90
17236;DHT22;8734;59.272;17.780;2024-03-06T08:15:33;0.50;99.90
17236;DHT22;8734;59.272;17.780;2024-03-06T08:18:04;0.60;99.90
17236;DHT22;8734;59.272;17.780;2024-03-06T08:20:33;0.50;99.90
17236;DHT22;8734;59.272;17.780;2024-03-06T08:23:03;0.50;99.90
17236;DHT22;8734;59.272;17.780;2024-03-06T08:25:31;0.60;99.90
17236;DHT22;8734;59.272;17.780;2024-03-06T08:28:00;0.60;99.90
17236;DHT22;8734;59.272;17.780;2024-03-06T08:30:30;0.60;99.90
17236;DHT22;8734;59.272;17.780;2024-03-06T08:32:59;0.70;99.90
17236;DHT22;8734;59.272;17.780;2024-03-06T08:35:31;0.70;99.90
17236;DHT22;8734;59.272;17.780;2024-03-06T08:37:59;0.70;99.90
17236;DHT22;8734;59.272;17.780;2024-03-06T08:40:28;0.70;99.90
17236;DHT22;8734;59.272;17.780;2024-03-06T08:42:56;0.70;99.90
17236;DHT22;8734;59.272;17.780;2024-03-06T08:45:24;0.70;99.90
17236;DHT22;8734;59.272;17.780;2024-03-06T08:47:52;0.70;99.90
17236;DHT22;8734;59.272;17.780;2024-03-06T08:50:22;0.70;99.90
17236;DHT22;8734;59.272;17.780;2024-03-06T08:52:51;0.70;99.90
17236;DHT22;8734;59.272;17.780;2024-03-06T08:55:19;0.80;99.90
17236;DHT22;8734;59.272;17.780;2024-03-06T08:57:48;0.80;99.90
17236;DHT22;8734;59.272;17.780;2024-03-06T09:00:17;0.80;99.90
17236;DHT22;8734;59.272;17.780;2024-03-06T09:02:45;0.80;99.90
17236;DHT22;8734;59.272;17.780;2024-03-06T09:05:14;0.90;99.90
17236;DHT22;8734;59.272;17.780;2024-03-06T09:07:43;1.00;99.90
17236;DHT22;8734;59.272;17.780;2024-03-06T09:10:12;1.00;99.90
17236;DHT22;8734;59.272;17.780;2024-03-06T09:12:41;1.00;99.90
17236;DHT22;8734;59.272;17.780;2024-03-06T09:15:09;1.00;99.90
17236;DHT22;8734;59.272;17.780;2024-03-06T09:17:39;1.00;99.90
17236;DHT22;8734;59.272;17.780;2024-03-06T09:20:08;1.10;99.90
17236;DHT22;8734;59.272;17.780;2024-03-06T09:22:40;1.00;99.90
17236;DHT22;8734;59.272;17.780;2024-03-06T09:25:11;1.10;99.90
17236;DHT22;8734;59.272;17.780;2024-03-06T09:27:42;1.10;99.90
17236;DHT22;8734;59.272;17.780;2024-03-06T09:30:11;1.20;99.90
17236;DHT22;8734;59.272;17.780;2024-03-06T09:32:41;1.20;99.90
17236;DHT22;8734;59.272;17.780;2024-03-06T09:35:11;1.30;99.90
17236;DHT22;8734;59.272;17.780;2024-03-06T09:37:41;1.30;99.90
17236;DHT22;8734;59.272;17.780;2024-03-06T09:40:19;1.20;99.90
17236;DHT22;8734;59.272;17.780;2024-03-06T09:42:48;1.30;99.90
17236;DHT22;8734;59.272;17.780;2024-03-06T09:45:17;1.40;99.90
17236;DHT22;8734;59.272;17.780;2024-03-06T09:47:47;1.50;99.90
17236;DHT22;8734;59.272;17.780;2024-03-06T09:50:18;1.50;99.90
17236;DHT22;8734;59.272;17.780;2024-03-06T09:52:52;1.50;99.90
17236;DHT22;8734;59.272;17.780;2024-03-06T09:55:24;1.50;99.90
17236;DHT22;8734;59.272;17.780;2024-03-06T09:57:54;1.60;99.90
17236;DHT22;8734;59.272;17.780;2024-03-06T10:00:23;1.70;99.90
17236;DHT22;8734;59.272;17.780;2024-03-06T10:02:57;1.70;99.90
17236;DHT22;8734;59.272;17.780;2024-03-06T10:05:27;1.60;99.90
17236;DHT22;8734;59.272;17.780;2024-03-06T10:07:55;1.60;99.90
17236;DHT22;8734;59.272;17.780;2024-03-06T10:10:27;1.70;99.90
17236;DHT22;8734;59.272;17.780;2024-03-06T10:12:55;1.90;99.90
17236;DHT22;8734;59.272;17.780;2024-03-06T10:15:27;2.10;99.90
17236;DHT22;8734;59.272;17.780;2024-03-06T10:18:10;2.60;99.90
17236;DHT22;8734;59.272;17.780;2024-03-06T10:20:40;2.70;99.90
17236;DHT22;8734;59.272;17.780;2024-03-06T10:23:11;2.90;99.90
17236;DHT22;8734;59.272;17.780;2024-03-06T10:25:42;3.10;99.90
17236;DHT22;8734;59.272;17.780;2024-03-06T10:28:12;3.50;99.90
17236;DHT22;8734;59.272;17.780;2024-03-06T10:30:41;3.80;99.90
17236;DHT22;8734;59.272;17.780;2024-03-06T10:33:11;5.30;99.90
17236;DHT22;8734;59.272;17.780;2024-03-06T10:35:41;6.00;99.90
17236;DHT22;8734;59.272;17.780;2024-03-06T10:38:10;6.10;99.90
17236;DHT22;8734;59.272;17.780;2024-03-06T10:40:41;5.40;99.90
17236;DHT22;8734;59.272;17.780;2024-03-06T10:43:11;5.00;99.90
17236;DHT22;8734;59.272;17.780;2024-03-06T10:45:47;5.60;99.90
17236;DHT22;8734;59.272;17.780;2024-03-06T10:48:16;7.50;99.90
17236;DHT22;8734;59.272;17.780;2024-03-06T10:50:46;9.40;99.90
17236;DHT22;8734;59.272;17.780;2024-03-06T10:53:16;10.60;99.90
17236;DHT22;8734;59.272;17.780;2024-03-06T10:55:50;12.30;99.90
17236;DHT22;8734;59.272;17.780;2024-03-06T10:58:20;13.60;99.90
17236;DHT22;8734;59.272;17.780;2024-03-06T11:00:50;10.80;99.90
17236;DHT22;8734;59.272;17.780;2024-03-06T11:03:19;7.80;99.90
17236;DHT22;8734;59.272;17.780;2024-03-06T11:05:48;6.40;94.00
17236;DHT22;8734;59.272;17.780;2024-03-06T11:08:19;5.70;99.90
17236;DHT22;8734;59.272;17.780;2024-03-06T11:10:50;4.80;99.90
17236;DHT22;8734;59.272;17.780;2024-03-06T11:13:23;4.40;1.00
17236;DHT22;8734;59.272;17.780;2024-03-06T11:15:53;4.10;99.90
17236;DHT22;8734;59.272;17.780;2024-03-06T11:18:43;3.80;1.00
17236;DHT22;8734;59.272;17.780;2024-03-06T11:21:45;3.80;1.00
17236;DHT22;8734;59.272;17.780;2024-03-06T11:24:15;3.50;1.00
17236;DHT22;8734;59.272;17.780;2024-03-06T11:26:48;3.60;1.00
17236;DHT22;8734;59.272;17.780;2024-03-06T11:29:18;3.60;1.00
17236;DHT22;8734;59.272;17.780;2024-03-06T11:32:07;3.60;1.00
17236;DHT22;8734;59.272;17.780;2024-03-06T11:34:37;3.60;1.00
17236;DHT22;8734;59.272;17.780;2024-03-06T11:37:07;3.70;1.00
17236;DHT22;8734;59.272;17.780;2024-03-06T11:39:38;3.60;1.00
17236;DHT22;8734;59.272;17.780;2024-03-06T11:42:10;3.60;1.00
17236;DHT22;8734;59.272;17.780;2024-03-06T11:44:52;3.50;1.00
17236;DHT22;8734;59.272;17.780;2024-03-06T11:47:22;3.30;1.00
17236;DHT22;8734;59.272;17.780;2024-03-06T11:49:50;3.10;1.00
17236;DHT22;8734;59.272;17.780;2024-03-06T11:52:21;3.10;1.00
17236;DHT22;8734;59.272;17.780;2024-03-06T11:54:52;3.10;1.00
17236;DHT22;8734;59.272;17.780;2024-03-06T11:57:22;3.10;1.00
17236;DHT22;8734;59.272;17.780;2024-03-06T11:59:52;3.10;10.90
17236;DHT22;8734;59.272;17.780;2024-03-06T12:02:21;3.20;6.80
17236;DHT22;8734;59.272;17.780;2024-03-06T12:04:49;3.20;19.80
17236;DHT22;8734;59.272;17.780;2024-03-06T12:07:18;3.40;40.30
17236;DHT22;8734;59.272;17.780;2024-03-06T12:09:46;3.60;99.90
17236;DHT22;8734;59.272;17.780;2024-03-06T12:12:15;3.50;99.90
17236;DHT22;8734;59.272;17.780;2024-03-06T12:14:56;3.50;99.90
17236;DHT22;8734;59.272;17.780;2024-03-06T12:17:25;3.60;99.90
17236;DHT22;8734;59.272;17.780;2024-03-06T12:19:55;3.60;99.90
17236;DHT22;8734;59.272;17.780;2024-03-06T12:22:25;3.60;99.90
17236;DHT22;8734;59.272;17.780;2024-03-06T12:24:59;3.60;99.90
17236;DHT22;8734;59.272;17.780;2024-03-06T12:27:28;3.70;99.90
17236;DHT22;8734;59.272;17.780;2024-03-06T12:29:57;3.70;99.90
17236;DHT22;8734;59.272;17.780;2024-03-06T12:32:25;3.60;99.90
17236;DHT22;8734;59.272;17.780;2024-03-06T12:34:57;3.60;99.90
17236;DHT22;8734;59.272;17.780;2024-03-06T12:37:31;3.70;99.90
17236;DHT22;8734;59.272;17.780;2024-03-06T12:40:00;3.70;99.90
17236;DHT22;8734;59.272;17.780;2024-03-06T12:42:29;3.70;99.90
17236;DHT22;8734;59.272;17.780;2024-03-06T12:44:59;3.70;99.90
17236;DHT22;8734;59.272;17.780;2024-03-06T12:47:27;3.80;99.90
17236;DHT22;8734;59.272;17.780;2024-03-06T12:49:56;3.90;99.90
17236;DHT22;8734;59.272;17.780;2024-03-06T12:52:24;3.80;99.90
17236;DHT22;8734;59.272;17.780;2024-03-06T12:54:52;3.90;99.90
17236;DHT22;8734;59.272;17.780;2024-03-06T12:57:20;3.90;99.90
17236;DHT22;8734;59.272;17.780;2024-03-06T12:59:49;3.90;99.90
17236;DHT22;8734;59.272;17.780;2024-03-06T13:02:19;3.90;99.90
17236;DHT22;8734;59.272;17.780;2024-03-06T13:04:47;3.80;99.90
17236;DHT22;8734;59.272;17.780;2024-03-06T13:07:15;3.80;99.90
17236;DHT22;8734;59.272;17.780;2024-03-06T13:09:43;3.90;99.90
17236;DHT22;8734;59.272;17.780;2024-03-06T13:12:12;3.90;99.90
17236;DHT22;8734;59.272;17.780;2024-03-06T13:14:40;3.80;99.90
17236;DHT22;8734;59.272;17.780;2024-03-06T13:17:08;3.90;99.90
17236;DHT22;8734;59.272;17.780;2024-03-06T13:19:38;3.90;99.90
17236;DHT22;8734;59.272;17.780;2024-03-06T13:22:06;3.90;99.90
17236;DHT22;8734;59.272;17.780;2024-03-06T13:24:34;3.90;99.90
17236;DHT22;8734;59.272;17.780;2024-03-06T13:27:07;4.00;99.90
17236;DHT22;8734;59.272;17.780;2024-03-06T13:29:36;4.00;99.90
17236;DHT22;8734;59.272;17.780;2024-03-06T13:32:04;4.00;99.90
17236;DHT22;8734;59.272;17.780;2024-03-06T13:34:33;4.20;99.90
17236;DHT22;8734;59.272;17.780;2024-03-06T13:37:02;4.10;99.90
17236;DHT22;8734;59.272;17.780;2024-03-06T13:39:33;4.10;99.90
17236;DHT22;8734;59.272;17.780;2024-03-06T13:42:03;4.10;99.90
17236;DHT22;8734;59.272;17.780;2024-03-06T13:44:32;4.10;99.90
17236;DHT22;8734;59.272;17.780;2024-03-06T13:47:01;4.10;99.90
17236;DHT22;8734;59.272;17.780;2024-03-06T13:49:37;4.20;99.90
17236;DHT22;8734;59.272;17.780;2024-03-06T13:52:09;4.20;99.90
17236;DHT22;8734;59.272;17.780;2024-03-06T13:54:40;4.20;99.90
17236;DHT22;8734;59.272;17.780;2024-03-06T13:57:09;4.20;99.90
17236;DHT22;8734;59.272;17.780;2024-03-06T13:59:38;4.20;99.90
17236;DHT22;8734;59.272;17.780;2024-03-06T14:02:07;4.20;99.90
17236;DHT22;8734;59.272;17.780;2024-03-06T14:04:36;4.20;99.90
17236;DHT22;8734;59.272;17.780;2024-03-06T14:07:04;4.20;99.90
17236;DHT22;8734;59.272;17.780;2024-03-06T14:09:34;4.20;99.90
17236;DHT22;8734;59.272;17.780;2024-03-06T14:12:02;4.20;99.90
17236;DHT22;8734;59.272;17.780;2024-03-06T14:14:31;4.20;99.90
17236;DHT22;8734;59.272;17.780;2024-03-06T14:16:59;4.20;99.90
17236;DHT22;8734;59.272;17.780;2024-03-06T14:19:28;4.20;99.90
17236;DHT22;8734;59.272;17.780;2024-03-06T14:21:58;4.20;99.90
17236;DHT22;8734;59.272;17.780;2024-03-06T14:24:31;4.30;99.90
17236;DHT22;8734;59.272;17.780;2024-03-06T14:27:00;4.20;99.90
17236;DHT22;8734;59.272;17.780;2024-03-06T14:29:29;4.20;99.90
17236;DHT22;8734;59.272;17.780;2024-03-06T14:31:58;4.30;99.90
17236;DHT22;8734;59.272;17.780;2024-03-06T14:34:29;4.30;99.90
17236;DHT22;8734;59.272;17.780;2024-03-06T14:36:58;4.30;99.90
17236;DHT22;8734;59.272;17.780;2024-03-06T14:39:26;4.30;99.90
17236;DHT22;8734;59.272;17.780;2024-03-06T14:41:54;4.30;99.90
17236;DHT22;8734;59.272;17.780;2024-03-06T14:44:24;4.30;99.90
17236;DHT22;8734;59.272;17.780;2024-03-06T14:46:52;4.30;99.90
17236;DHT22;8734;59.272;17.780;2024-03-06T14:49:20;4.30;99.90
17236;DHT22;8734;59.272;17.780;2024-03-06T14:51:49;4.30;99.90
17236;DHT22;8734;59.272;17.780;2024-03-06T14:54:17;4.20;99.90
17236;DHT22;8734;59.272;17.780;2024-03-06T14:56:45;4.20;99.90
17236;DHT22;8734;59.272;17.780;2024-03-06T14:59:13;4.20;99.90
17236;DHT22;8734;59.272;17.780;2024-03-06T15:01:43;4.20;99.90
17236;DHT22;8734;59.272;17.780;2024-03-06T15:04:11;4.20;99.90
17236;DHT22;8734;59.272;17.780;2024-03-06T15:06:40;4.20;99.90
17236;DHT22;8734;59.272;17.780;2024-03-06T15:09:08;4.20;99.90
17236;DHT22;8734;59.272;17.780;2024-03-06T15:11:38;4.20;99.90
17236;DHT22;8734;59.272;17.780;2024-03-06T15:14:07;4.20;99.90
17236;DHT22;8734;59.272;17.780;2024-03-06T15:16:37;4.10;99.90
17236;DHT22;8734;59.272;17.780;2024-03-06T15:19:07;4.10;99.90
17236;DHT22;8734;59.272;17.780;2024-03-06T15:21:35;4.10;99.90
17236;DHT22;8734;59.272;17.780;2024-03-06T15:24:04;4.10;99.90
17236;DHT22;8734;59.272;17.780;2024-03-06T15:26:32;4.10;99.90
17236;DHT22;8734;59.272;17.780;2024-03-06T15:29:03;4.00;99.90
17236;DHT22;8734;59.272;17.780;2024-03-06T15:31:33;4.00;99.90
17236;DHT22;8734;59.272;17.780;2024-03-06T15:34:01;4.00;99.90
17236;DHT22;8734;59.272;17.780;2024-03-06T15:36:31;4.00;99.90
17236;DHT22;8734;59.272;17.780;2024-03-06T15:38:59;3.90;99.90
17236;DHT22;8734;59.272;17.780;2024-03-06T15:41:27;3.90;99.90
17236;DHT22;8734;59.272;17.780;2024-03-06T15:43:56;3.90;99.90
17236;DHT22;8734;59.272;17.780;2024-03-06T15:46:24;3.80;99.90
17236;DHT22;8734;59.272;17.780;2024-03-06T15:48:53;3.80;99.90
17236;DHT22;8734;59.272;17.780;2024-03-06T15:51:21;3.70;99.90
17236;DHT22;8734;59.272;17.780;2024-03-06T15:53:51;3.60;99.90
17236;DHT22;8734;59.272;17.780;2024-03-06T15:56:20;3.60;99.90
17236;DHT22;8734;59.272;17.780;2024-03-06T15:58:48;3.50;99.90